Time;durP1;ratioP1;P1;durP2;ratioP2;P2;SDS_P1;SDS_P2;PMS_P1;PMS_P2;Temp;Humidity;BMP_temperature;BMP_pressure;BME280_temperature;BME280_humidity;BME280_pressure;Samples;Min_cycle;Max_cycle;Signal;HPM_P1;HPM_P2
2024/01/02 00:00:14;;;;;;;4.60;1.50;;;;;;;18.46;44.16;99939.69;5088391;28;20379;-73
2024/01/02 00:02:39;;;;;;;3.95;1.33;;;;;;;18.49;44.26;99938.56;5087686;28;20480;-73
2024/01/02 00:05:05;;;;;;;5.05;1.40;;;;;;;18.39;44.32;99920.19;5087765;28;20488;-73
2024/01/02 00:07:30;;;;;;;4.15;1.20;;;;;;;18.38;44.43;99913.22;5088348;28;20036;-73
2024/01/02 00:09:55;;;;;;;3.00;1.13;;;;;;;18.43;44.29;99926.78;5088789;28;20119;-73
2024/01/02 00:12:21;;;;;;;4.35;1.30;;;;;;;18.43;44.16;99924.16;5088121;28;20067;-74
2024/01/02 00:14:46;;;;;;;4.07;1.27;;;;;;;18.34;44.03;99906.59;5087980;28;20024;-73
2024/01/02 00:17:11;;;;;;;3.45;1.23;;;;;;;18.41;44.23;99905.03;5087919;28;20036;-73
2024/01/02 00:19:37;;;;;;;2.97;0.95;;;;;;;18.42;44.41;99895.28;5088482;28;20028;-73
2024/01/02 00:22:03;;;;;;;3.57;1.20;;;;;;;18.36;44.30;99880.91;5088646;28;20081;-74
2024/01/02 00:24:28;;;;;;;4.47;1.42;;;;;;;18.17;44.25;99828.28;5088960;28;20768;-73
2024/01/02 00:26:54;;;;;;;2.95;1.00;;;;;;;18.28;44.33;99839.44;5087533;28;20056;-73
2024/01/02 00:29:19;;;;;;;3.80;1.30;;;;;;;18.29;44.38;99829.72;5088672;28;20031;-73
2024/01/02 00:31:44;;;;;;;3.78;1.20;;;;;;;18.26;44.39;99817.66;5088557;28;20362;-74
2024/01/02 00:34:11;;;;;;;4.15;1.42;;;;;;;18.26;44.12;99807.13;5088923;28;20042;-73
2024/01/02 00:36:37;;;;;;;4.75;1.25;;;;;;;18.30;44.23;99799.72;5088066;28;20027;-72
2024/01/02 00:39:02;;;;;;;4.10;1.42;;;;;;;18.23;44.08;99780.19;5087373;28;20043;-73
2024/01/02 00:41:28;;;;;;;4.30;1.27;;;;;;;18.31;44.25;99775.84;5087619;28;20130;-73
2024/01/02 00:43:53;;;;;;;3.35;1.02;;;;;;;18.23;44.45;99749.41;5087302;28;20480;-73
2024/01/02 00:46:18;;;;;;;4.68;1.17;;;;;;;18.31;44.35;99752.09;5087602;28;20131;-73
2024/01/02 00:48:43;;;;;;;3.83;1.20;;;;;;;18.27;44.28;99734.91;5087373;28;20470;-73
2024/01/02 00:51:09;;;;;;;3.58;1.00;;;;;;;18.27;44.35;99718.28;5087603;28;20024;-73
2024/01/02 00:53:34;;;;;;;3.92;1.00;;;;;;;18.20;44.54;99701.38;5087585;28;20465;-73
2024/01/02 00:56:00;;;;;;;3.72;1.13;;;;;;;18.26;44.32;99706.06;5087530;28;20043;-73
2024/01/02 00:58:25;;;;;;;3.08;1.10;;;;;;;18.25;44.46;99702.59;5087186;28;20032;-73
2024/01/02 01:00:51;;;;;;;2.63;0.93;;;;;;;18.25;44.44;99694.69;5087419;28;20046;-73
2024/01/02 01:03:16;;;;;;;5.15;1.02;;;;;;;18.25;44.47;99678.03;5086351;28;20032;-73
2024/01/02 01:05:41;;;;;;;3.67;1.10;;;;;;;18.18;44.53;99661.97;5087206;28;20035;-73
2024/01/02 01:08:07;;;;;;;4.73;0.90;;;;;;;18.19;44.48;99660.19;5087380;28;20572;-73
2024/01/02 01:10:32;;;;;;;3.92;1.00;;;;;;;18.13;44.41;99640.53;5086970;28;20265;-73
2024/01/02 01:12:57;;;;;;;3.23;1.00;;;;;;;18.17;44.27;99633.16;5087201;28;20098;-73
2024/01/02 01:15:23;;;;;;;3.08;0.90;;;;;;;18.20;44.39;99649.50;5087499;28;20587;-74
2024/01/02 01:17:48;;;;;;;3.28;1.00;;;;;;;18.18;44.29;99643.53;5087275;28;20491;-73
2024/01/02 01:20:13;;;;;;;2.63;0.98;;;;;;;18.20;44.39;99638.94;5068137;28;20362;-73
2024/01/02 01:22:39;;;;;;;3.50;1.23;;;;;;;18.13;44.30;99611.53;5087628;28;20039;-73
2024/01/02 01:25:05;;;;;;;2.90;0.90;;;;;;;18.07;44.36;99597.16;5088148;28;20032;-73
2024/01/02 01:27:30;;;;;;;2.25;0.85;;;;;;;18.07;44.46;99596.31;5088004;28;20063;-73
2024/01/02 01:29:55;;;;;;;2.78;0.80;;;;;;;18.16;44.52;99597.22;5088068;28;20059;-74
2024/01/02 01:32:21;;;;;;;2.05;0.80;;;;;;;18.06;44.45;99571.78;5088218;28;20028;-73
2024/01/02 01:34:46;;;;;;;3.15;0.90;;;;;;;18.03;44.34;99553.63;5086765;28;20028;-73
2024/01/02 01:37:11;;;;;;;3.72;1.08;;;;;;;18.11;44.44;99556.31;5088127;28;20089;-73
2024/01/02 01:39:36;;;;;;;2.15;0.75;;;;;;;18.03;44.56;99535.19;5087687;28;20029;-73
2024/01/02 01:42:02;;;;;;;1.35;0.57;;;;;;;18.04;44.53;99533.34;5087960;28;20115;-73
2024/01/02 01:44:28;;;;;;;2.75;0.93;;;;;;;18.00;44.56;99519.66;5087206;28;20411;-73
2024/01/02 01:46:53;;;;;;;2.92;0.80;;;;;;;18.12;44.50;99543.97;5087504;28;20032;-73
2024/01/02 01:49:19;;;;;;;3.25;1.05;;;;;;;18.00;44.16;99498.56;5087308;28;20105;-73
2024/01/02 01:51:46;;;;;;;2.53;0.90;;;;;;;18.10;44.59;99512.50;5087556;28;20024;-73
2024/01/02 01:54:13;;;;;;;3.47;0.98;;;;;;;18.09;44.60;99495.00;5086599;28;20053;-75
2024/01/02 01:56:39;;;;;;;2.88;0.80;;;;;;;18.00;44.54;99479.31;5087251;28;20024;-72
2024/01/02 01:59:05;;;;;;;2.40;0.85;;;;;;;18.07;44.61;99494.34;5086628;28;20066;-72
2024/01/02 02:01:31;;;;;;;2.22;0.85;;;;;;;18.05;44.52;99479.66;5086689;28;20035;-72
2024/01/02 02:03:59;;;;;;;2.75;0.93;;;;;;;17.97;44.66;99451.44;5085782;28;20039;-72
2024/01/02 02:06:24;;;;;;;2.78;0.68;;;;;;;18.00;44.72;99456.41;5088040;28;20032;-73
2024/01/02 02:08:50;;;;;;;1.45;0.55;;;;;;;17.96;44.45;99444.53;5088090;28;20035;-72
2024/01/02 02:11:16;;;;;;;2.97;0.80;;;;;;;18.03;44.38;99458.72;5087147;28;20028;-72
2024/01/02 02:13:42;;;;;;;2.47;0.70;;;;;;;18.02;44.63;99446.50;5087658;28;20040;-72
2024/01/02 02:16:08;;;;;;;3.25;0.75;;;;;;;17.95;44.44;99429.69;5069771;28;20031;-74
2024/01/02 02:18:33;;;;;;;2.03;0.68;;;;;;;17.96;44.61;99420.81;5088182;28;20046;-72
2024/01/02 02:20:58;;;;;;;1.90;0.47;;;;;;;18.03;44.40;99423.63;5087849;28;20047;-72
2024/01/02 02:23:23;;;;;;;1.37;0.63;;;;;;;17.99;44.53;99409.97;5087875;28;20032;-72
2024/01/02 02:25:49;;;;;;;2.77;0.77;;;;;;;17.96;44.43;99391.81;5088387;28;20261;-72
2024/01/02 02:28:14;;;;;;;2.38;0.60;;;;;;;17.97;44.58;99388.19;5088265;28;20268;-73
2024/01/02 02:30:39;;;;;;;2.05;0.70;;;;;;;17.95;44.75;99379.63;5088026;28;20062;-73
2024/01/02 02:33:05;;;;;;;2.10;0.60;;;;;;;17.98;44.54;99387.22;5088398;28;20477;-73
2024/01/02 02:35:30;;;;;;;2.53;0.60;;;;;;;17.99;44.38;99382.75;5088666;28;20111;-73
2024/01/02 02:37:56;;;;;;;1.25;0.55;;;;;;;17.95;44.62;99363.78;5088512;28;20410;-72
2024/01/02 02:40:21;;;;;;;0.95;0.50;;;;;;;17.87;44.72;99322.38;5088427;28;20036;-74
2024/01/02 02:42:46;;;;;;;2.63;0.73;;;;;;;17.87;44.78;99322.38;5088868;28;20024;-73
2024/01/02 02:45:12;;;;;;;1.85;0.70;;;;;;;17.90;44.67;99318.66;5089049;28;20028;-73
2024/01/02 02:47:37;;;;;;;1.60;0.50;;;;;;;17.86;44.63;99315.47;5088410;28;20059;-73
2024/01/02 02:50:05;;;;;;;2.03;0.60;;;;;;;17.88;44.70;99305.63;5089308;28;20048;-73
2024/01/02 02:52:31;;;;;;;2.35;0.60;;;;;;;17.86;44.76;99302.28;5091857;28;20040;-73
2024/01/02 02:54:57;;;;;;;1.27;0.50;;;;;;;17.93;44.82;99307.78;5091784;28;20793;-73
2024/01/02 02:57:22;;;;;;;2.03;0.60;;;;;;;17.85;44.94;99290.09;5092047;28;20057;-73
2024/01/02 02:59:47;;;;;;;1.48;0.60;;;;;;;17.92;44.66;99277.94;5091959;28;20103;-73
2024/01/02 03:02:12;;;;;;;2.20;0.52;;;;;;;17.92;44.80;99263.97;5090918;28;21023;-73
2024/01/02 03:04:38;;;;;;;1.17;0.50;;;;;;;17.90;44.77;99265.94;5092240;28;20055;-72
2024/01/02 03:07:03;;;;;;;2.58;0.60;;;;;;;17.81;44.90;99236.06;5095564;28;20076;-72
2024/01/02 03:09:28;;;;;;;2.03;0.57;;;;;;;17.91;44.49;99228.03;5095242;28;20488;-73
2024/01/02 03:11:54;;;;;;;1.30;0.50;;;;;;;17.88;44.79;99216.03;5095020;28;20036;-72
2024/01/02 03:14:19;;;;;;;1.38;0.55;;;;;;;17.89;44.86;99208.94;5095099;28;20024;-73
2024/01/02 03:16:44;;;;;;;1.65;0.60;;;;;;;17.82;45.08;99200.84;5095132;28;20119;-72
2024/01/02 03:19:09;;;;;;;1.45;0.45;;;;;;;17.82;45.00;99189.47;5094966;28;20032;-72
2024/01/02 03:21:35;;;;;;;2.35;0.50;;;;;;;17.88;44.99;99199.38;5094923;28;20389;-72
2024/01/02 03:24:02;;;;;;;1.38;0.43;;;;;;;17.81;44.73;99177.28;5094692;28;20457;-73
2024/01/02 03:26:28;;;;;;;2.10;0.50;;;;;;;17.85;44.94;99178.56;5095050;28;20670;-73
2024/01/02 03:28:53;;;;;;;1.00;0.40;;;;;;;17.84;44.89;99179.59;5094256;28;20032;-72
2024/01/02 03:31:18;;;;;;;1.33;0.60;;;;;;;17.87;45.02;99171.34;5089612;28;21332;-73
2024/01/02 03:33:43;;;;;;;1.23;0.40;;;;;;;17.80;44.94;99160.66;5089660;28;20260;-73
2024/01/02 03:36:13;;;;;;;1.13;0.50;;;;;;;17.85;44.88;99160.13;5089124;28;21565;-73
2024/01/02 03:38:39;;;;;;;1.30;0.40;;;;;;;17.81;44.99;99148.28;5089106;28;20040;-73
2024/01/02 03:41:04;;;;;;;0.80;0.40;;;;;;;17.85;44.84;99153.06;5088777;28;20373;-73
2024/01/02 03:43:29;;;;;;;1.13;0.40;;;;;;;17.76;44.76;99136.41;5089200;28;20072;-73
2024/01/02 03:45:57;;;;;;;2.50;0.47;;;;;;;17.85;45.10;99146.97;5088136;28;20497;-72
2024/01/02 03:48:23;;;;;;;0.55;0.40;;;;;;;17.82;44.83;99139.41;5089001;28;20035;-74
2024/01/02 03:50:49;;;;;;;1.02;0.40;;;;;;;17.83;45.07;99144.50;5088912;28;20054;-73
2024/01/02 03:53:14;;;;;;;1.00;0.43;;;;;;;17.79;45.14;99137.91;5088344;28;20471;-73
2024/01/02 03:55:39;;;;;;;0.90;0.47;;;;;;;17.83;45.08;99141.03;5088585;28;20047;-74
2024/01/02 03:58:05;;;;;;;1.75;0.52;;;;;;;17.73;45.10;99125.38;5088321;28;20028;-73
2024/01/02 04:00:30;;;;;;;0.63;0.30;;;;;;;17.74;44.89;99122.59;5088471;28;20040;-74
2024/01/02 04:02:55;;;;;;;1.05;0.40;;;;;;;17.77;45.29;99124.91;5087325;28;20040;-73
2024/01/02 04:05:22;;;;;;;0.60;0.38;;;;;;;17.80;45.05;99122.91;5088434;28;20027;-73
2024/01/02 04:07:47;;;;;;;0.98;0.40;;;;;;;17.74;45.19;99111.25;5088875;28;20464;-73
2024/01/02 04:10:13;;;;;;;0.50;0.30;;;;;;;17.80;45.21;99104.47;5089018;28;20031;-73
2024/01/02 04:12:38;;;;;;;1.33;0.40;;;;;;;17.80;45.31;99110.59;5089071;28;20153;-73
2024/01/02 04:15:04;;;;;;;0.67;0.40;;;;;;;17.71;45.15;99090.47;5070959;28;20114;-73
2024/01/02 04:17:29;;;;;;;0.60;0.30;;;;;;;17.75;45.39;99102.31;5088852;28;20267;-74
2024/01/02 04:19:54;;;;;;;0.80;0.38;;;;;;;17.67;45.41;99087.34;5088742;28;20027;-73
2024/01/02 04:22:20;;;;;;;0.50;0.37;;;;;;;17.70;45.33;99089.66;5088619;28;20032;-73
2024/01/02 04:24:45;;;;;;;0.50;0.30;;;;;;;17.77;45.13;99095.91;5088107;28;20256;-73
2024/01/02 04:27:11;;;;;;;1.35;0.40;;;;;;;17.68;45.42;99081.09;5088049;28;20032;-73
2024/01/02 04:29:36;;;;;;;1.58;0.40;;;;;;;17.68;45.67;99073.19;5087892;28;20111;-73
2024/01/02 04:32:02;;;;;;;0.60;0.40;;;;;;;17.77;45.39;99095.09;5088019;28;20047;-73
2024/01/02 04:34:27;;;;;;;0.85;0.43;;;;;;;17.73;45.54;99089.31;5087935;28;20020;-73
2024/01/02 04:36:52;;;;;;;0.20;0.20;;;;;;;17.75;45.78;99094.41;5088018;28;20032;-73
2024/01/02 04:39:18;;;;;;;0.75;0.30;;;;;;;17.76;45.48;99078.44;5087671;28;20111;-73
2024/01/02 04:41:43;;;;;;;1.95;0.47;;;;;;;17.72;45.69;99079.78;5087640;28;20081;-73
2024/01/02 04:44:08;;;;;;;1.25;0.40;;;;;;;17.67;45.62;99066.25;5087374;28;20024;-74
2024/01/02 04:46:35;;;;;;;0.60;0.30;;;;;;;17.63;45.93;99070.22;5087612;28;20056;-73
2024/01/02 04:49:00;;;;;;;0.20;0.20;;;;;;;17.68;45.62;99075.00;5087538;28;20050;-70
2024/01/02 04:51:27;;;;;;;0.28;0.20;;;;;;;17.74;45.77;99080.44;5087794;28;20106;-73
2024/01/02 04:53:53;;;;;;;0.40;0.30;;;;;;;17.71;45.66;99072.84;5087575;28;20364;-73
2024/01/02 04:56:18;;;;;;;0.67;0.30;;;;;;;17.62;45.62;99054.59;5087769;28;20040;-72
2024/01/02 04:58:43;;;;;;;1.40;0.38;;;;;;;17.70;45.85;99071.19;5087174;28;20265;-72
2024/01/02 05:01:08;;;;;;;0.63;0.30;;;;;;;17.64;45.87;99069.25;5087073;28;20122;-73
2024/01/02 05:03:34;;;;;;;1.05;0.30;;;;;;;17.73;45.97;99083.22;5068811;28;20032;-72
2024/01/02 05:05:59;;;;;;;0.35;0.20;;;;;;;17.72;45.87;99073.66;5087142;28;20032;-72
2024/01/02 05:08:24;;;;;;;0.50;0.30;;;;;;;17.65;45.75;99076.16;5086840;28;20111;-72
2024/01/02 05:10:49;;;;;;;2.03;0.30;;;;;;;17.71;45.99;99082.59;5087110;28;20056;-72
2024/01/02 05:13:15;;;;;;;0.30;0.30;;;;;;;17.67;46.04;99083.88;5086148;28;20621;-75
2024/01/02 05:15:40;;;;;;;0.20;0.20;;;;;;;17.64;46.34;99089.47;5086906;28;20036;-72
2024/01/02 05:18:06;;;;;;;0.77;0.20;;;;;;;17.70;46.20;99099.38;5086680;28;20485;-73
2024/01/02 05:20:31;;;;;;;1.17;0.40;;;;;;;17.71;46.30;99098.38;5087043;28;20046;-73
2024/01/02 05:23:03;;;;;;;0.60;0.30;;;;;;;17.62;46.43;99078.28;5086233;28;20465;-73
2024/01/02 05:25:28;;;;;;;0.20;0.20;;;;;;;17.64;46.50;99089.47;5087260;28;20563;-73
2024/01/02 05:27:54;;;;;;;0.68;0.30;;;;;;;17.61;46.50;99090.66;5086465;28;20111;-73
2024/01/02 05:30:19;;;;;;;0.20;0.20;;;;;;;17.60;46.62;99078.47;5087058;28;20085;-72
2024/01/02 05:32:44;;;;;;;0.38;0.28;;;;;;;17.68;46.59;99090.81;5086840;28;20081;-72
2024/01/02 05:35:10;;;;;;;0.50;0.30;;;;;;;17.66;46.71;99083.06;5087148;28;20358;-72
2024/01/02 05:37:35;;;;;;;0.20;0.20;;;;;;;17.65;46.79;99091.94;5087243;28;20066;-72
2024/01/02 05:40:00;;;;;;;0.45;0.20;;;;;;;17.65;46.83;99083.25;5087311;28;20071;-72
2024/01/02 05:42:26;;;;;;;0.45;0.30;;;;;;;17.67;47.14;99092.59;5086731;28;20062;-72
2024/01/02 05:44:51;;;;;;;0.20;0.20;;;;;;;17.61;47.10;99079.28;5087141;28;20032;-72
2024/01/02 05:47:16;;;;;;;0.20;0.20;;;;;;;17.66;47.37;99082.25;5086895;28;20608;-72
2024/01/02 05:49:42;;;;;;;0.35;0.30;;;;;;;17.61;47.12;99098.56;5087067;28;20101;-72
2024/01/02 05:52:07;;;;;;;0.40;0.30;;;;;;;17.67;47.13;99104.97;5087332;28;20035;-73
2024/01/02 05:54:33;;;;;;;0.20;0.20;;;;;;;17.65;47.22;99109.56;5085927;28;20499;-72
2024/01/02 05:56:59;;;;;;;0.20;0.20;;;;;;;17.56;47.10;99096.41;5086150;28;20024;-72
2024/01/02 05:59:24;;;;;;;0.20;0.20;;;;;;;17.62;47.15;99113.34;5086252;28;20043;-72
2024/01/02 06:01:49;;;;;;;0.45;0.30;;;;;;;17.66;47.06;99130.50;5085049;28;20036;-73
2024/01/02 06:04:14;;;;;;;0.32;0.22;;;;;;;17.66;46.95;99125.22;5085123;28;20032;-72
2024/01/02 06:06:40;;;;;;;0.20;0.20;;;;;;;17.61;47.03;99121.41;5086325;28;20165;-72
2024/01/02 06:09:06;;;;;;;0.20;0.20;;;;;;;17.54;46.93;99106.25;5086098;28;20453;-72
2024/01/02 06:11:31;;;;;;;0.60;0.20;;;;;;;17.59;46.85;99111.88;5085808;28;20043;-72
2024/01/02 06:13:56;;;;;;;0.20;0.20;;;;;;;17.66;47.04;99114.69;5086213;28;20024;-73
2024/01/02 06:16:21;;;;;;;0.55;0.22;;;;;;;17.77;47.07;99132.00;5086545;28;20268;-73
2024/01/02 06:18:47;;;;;;;0.20;0.20;;;;;;;17.72;47.21;99124.56;5086049;28;20030;-72
2024/01/02 06:21:12;;;;;;;0.25;0.20;;;;;;;17.79;47.16;99134.47;5085374;28;20036;-73
2024/01/02 06:23:38;;;;;;;0.20;0.20;;;;;;;17.92;47.14;99145.34;5085744;28;20055;-73
2024/01/02 06:26:03;;;;;;;0.30;0.20;;;;;;;17.91;47.07;99141.91;5086214;28;20063;-73
2024/01/02 06:28:29;;;;;;;0.25;0.20;;;;;;;17.94;47.13;99136.31;5085584;28;20119;-73
2024/01/02 06:30:55;;;;;;;0.20;0.20;;;;;;;18.06;46.95;99163.16;5085656;28;20040;-72
2024/01/02 06:33:20;;;;;;;0.32;0.30;;;;;;;18.10;46.96;99168.91;5067400;28;20024;-72
2024/01/02 06:35:46;;;;;;;0.20;0.20;;;;;;;18.16;47.00;99176.16;5085876;28;20529;-72
2024/01/02 06:38:11;;;;;;;0.20;0.20;;;;;;;18.07;47.11;99151.63;5085455;28;20036;-71
2024/01/02 06:40:37;;;;;;;0.45;0.20;;;;;;;18.21;46.87;99163.31;5085365;28;20531;-71
2024/01/02 06:43:02;;;;;;;0.68;0.20;;;;;;;18.25;47.01;99167.28;5086066;28;20127;-72
2024/01/02 06:45:28;;;;;;;0.20;0.20;;;;;;;18.24;46.83;99159.53;5085739;28;20024;-72
2024/01/02 06:47:55;;;;;;;0.52;0.20;;;;;;;18.25;47.05;99164.63;5085910;28;20365;-73
2024/01/02 06:50:21;;;;;;;0.52;0.20;;;;;;;18.18;46.82;99155.72;5085722;28;20078;-73
2024/01/02 06:52:46;;;;;;;0.47;0.20;;;;;;;18.20;46.90;99161.69;5085732;28;20032;-72
2024/01/02 06:55:11;;;;;;;0.20;0.20;;;;;;;18.27;47.04;99169.75;5086309;28;20030;-73
2024/01/02 06:57:36;;;;;;;1.05;0.20;;;;;;;18.19;47.11;99157.38;5085174;28;20044;-73
2024/01/02 07:00:05;;;;;;;0.20;0.20;;;;;;;18.21;46.82;99171.22;5085976;28;20056;-73
2024/01/02 07:02:31;;;;;;;0.55;0.30;;;;;;;18.23;46.96;99168.41;5084395;28;20039;-73
2024/01/02 07:04:57;;;;;;;0.20;0.20;;;;;;;18.24;46.93;99178.78;5085545;28;20042;-72
2024/01/02 07:07:22;;;;;;;0.20;0.20;;;;;;;18.32;47.03;99193.78;5085896;28;20024;-72
2024/01/02 07:09:47;;;;;;;0.35;0.20;;;;;;;18.24;46.98;99183.25;5086330;28;20480;-72
2024/01/02 07:12:12;;;;;;;0.20;0.20;;;;;;;18.28;46.88;99195.94;5086544;28;20066;-73
2024/01/02 07:14:38;;;;;;;0.52;0.30;;;;;;;18.30;47.10;99211.59;5086136;28;20422;-72
2024/01/02 07:17:03;;;;;;;0.20;0.20;;;;;;;18.25;46.99;99191.00;5086551;28;20021;-73
2024/01/02 07:19:29;;;;;;;0.40;0.25;;;;;;;18.24;47.23;99188.53;5085865;28;20111;-72
2024/01/02 07:21:54;;;;;;;0.30;0.30;;;;;;;18.25;47.13;99198.09;5086156;28;20028;-73
2024/01/02 07:24:19;;;;;;;1.63;0.40;;;;;;;18.20;47.21;99193.31;5085498;28;20453;-73
2024/01/02 07:26:44;;;;;;;0.50;0.20;;;;;;;18.29;47.38;99208.16;5085351;28;20105;-73
2024/01/02 07:29:10;;;;;;;0.50;0.30;;;;;;;18.19;47.12;99207.47;5085311;28;20268;-73
2024/01/02 07:31:35;;;;;;;0.40;0.30;;;;;;;18.24;47.28;99222.81;5085747;28;21501;-72
2024/01/02 07:34:01;;;;;;;0.40;0.30;;;;;;;18.26;47.25;99221.66;5085301;28;20036;-73
2024/01/02 07:36:27;;;;;;;0.50;0.40;;;;;;;18.27;47.31;99222.47;5086185;28;20392;-72
2024/01/02 07:38:52;;;;;;;0.47;0.30;;;;;;;18.26;47.39;99224.31;5089300;28;20032;-72
2024/01/02 07:41:17;;;;;;;0.75;0.30;;;;;;;18.25;47.21;99230.56;5089831;28;20139;-72
2024/01/02 07:43:43;;;;;;;0.30;0.30;;;;;;;18.26;47.04;99231.38;5089495;28;20032;-72
2024/01/02 07:46:08;;;;;;;0.82;0.40;;;;;;;18.27;47.49;99235.66;5071598;28;20035;-72
2024/01/02 07:48:33;;;;;;;1.10;0.50;;;;;;;18.23;47.68;99231.69;5089617;28;20032;-72
2024/01/02 07:50:59;;;;;;;1.00;0.40;;;;;;;18.24;47.48;99243.91;5089790;28;20495;-73
2024/01/02 07:53:24;;;;;;;1.30;0.43;;;;;;;18.20;47.14;99245.22;5088992;28;20077;-72
2024/01/02 07:55:49;;;;;;;1.13;0.40;;;;;;;18.24;47.32;99243.91;5089573;28;20062;-72
2024/01/02 07:58:22;;;;;;;0.85;0.40;;;;;;;18.22;47.49;99240.63;5089308;28;20032;-73
2024/01/02 08:00:48;;;;;;;1.08;0.40;;;;;;;18.25;47.67;99243.75;5089480;28;20028;-72
2024/01/02 08:03:14;;;;;;;1.63;0.40;;;;;;;18.16;47.82;99230.72;5087859;28;20047;-73
2024/01/02 08:05:40;;;;;;;0.85;0.40;;;;;;;18.16;47.66;99241.25;5089089;28;20084;-72
2024/01/02 08:08:05;;;;;;;1.30;0.50;;;;;;;18.19;47.59;99247.03;5089145;28;20028;-72
2024/01/02 08:10:32;;;;;;;1.30;0.43;;;;;;;18.17;47.76;99249.00;5088142;28;20181;-72
2024/01/02 08:12:57;;;;;;;0.95;0.45;;;;;;;18.23;47.65;99252.78;5088115;28;20468;-73
2024/01/02 08:15:22;;;;;;;2.42;0.50;;;;;;;18.14;47.66;99241.44;5087064;28;20105;-72
2024/01/02 08:17:47;;;;;;;0.95;0.55;;;;;;;18.15;47.75;99235.19;5088022;28;20111;-73
2024/01/02 08:20:13;;;;;;;1.40;0.50;;;;;;;18.22;47.76;99257.25;5087889;28;20153;-72
2024/01/02 08:22:39;;;;;;;3.15;0.43;;;;;;;18.15;47.62;99240.44;5087933;28;20384;-72
2024/01/02 08:25:04;;;;;;;2.05;0.60;;;;;;;18.24;47.97;99265.81;5087460;28;20103;-72
2024/01/02 08:27:29;;;;;;;1.70;0.50;;;;;;;18.24;48.06;99271.09;5088016;28;20043;-72
2024/01/02 08:29:55;;;;;;;1.73;0.77;;;;;;;18.24;47.93;99275.53;5086028;28;20354;-72
2024/01/02 08:32:21;;;;;;;1.33;0.60;;;;;;;18.26;48.22;99276.19;5087186;28;20059;-73
2024/01/02 08:34:47;;;;;;;2.28;0.50;;;;;;;18.24;48.45;99272.91;5087558;28;20159;-73
2024/01/02 08:37:12;;;;;;;2.45;0.60;;;;;;;18.26;48.25;99270.94;5087423;28;20139;-74
2024/01/02 08:39:38;;;;;;;1.55;0.65;;;;;;;18.23;48.53;99264.19;5087217;28;20028;-73
2024/01/02 08:42:04;;;;;;;1.30;0.50;;;;;;;18.26;48.61;99260.38;5087773;28;20467;-74
2024/01/02 08:44:30;;;;;;;0.82;0.45;;;;;;;18.25;48.60;99256.09;5087590;28;20097;-72
2024/01/02 08:46:55;;;;;;;2.20;0.60;;;;;;;18.28;48.57;99253.97;5087248;28;20028;-73
2024/01/02 08:49:20;;;;;;;1.40;0.40;;;;;;;18.25;48.82;99248.19;5086446;28;20079;-74
2024/01/02 08:51:46;;;;;;;1.67;0.50;;;;;;;18.24;49.08;99249.19;5087718;28;20119;-75
2024/01/02 08:54:11;;;;;;;2.25;0.52;;;;;;;18.21;49.17;99233.69;5087273;28;20412;-72
2024/01/02 08:56:36;;;;;;;0.90;0.50;;;;;;;18.29;48.99;99253.00;5088079;28;20024;-72
2024/01/02 08:59:02;;;;;;;1.55;0.50;;;;;;;18.21;48.98;99236.31;5086769;28;20542;-71
2024/01/02 09:01:27;;;;;;;2.10;0.50;;;;;;;18.22;49.20;99235.34;5087098;28;20031;-71
2024/01/02 09:03:53;;;;;;;1.35;0.52;;;;;;;18.22;49.15;99232.72;5085455;28;20118;-73
2024/01/02 09:06:19;;;;;;;1.67;0.68;;;;;;;18.25;49.34;99232.38;5087070;28;20054;-70
2024/01/02 09:08:45;;;;;;;1.42;0.52;;;;;;;18.30;49.31;99236.16;5068668;28;20083;-73
2024/01/02 09:11:11;;;;;;;1.77;0.73;;;;;;;18.27;49.84;99227.75;5088110;28;20036;-71
2024/01/02 09:13:36;;;;;;;2.05;0.50;;;;;;;18.36;49.83;99232.03;5087635;28;20064;-71
2024/01/02 09:16:02;;;;;;;1.17;0.60;;;;;;;18.29;49.78;99216.06;5087745;28;20071;-71
2024/01/02 09:18:28;;;;;;;1.60;0.55;;;;;;;18.39;49.66;99229.09;5087745;28;20028;-72
2024/01/02 09:20:54;;;;;;;3.67;0.70;;;;;;;18.34;49.95;99222.63;5088044;28;20039;-71
2024/01/02 09:23:19;;;;;;;1.23;0.70;;;;;;;18.39;49.90;99225.59;5087802;28;20146;-71
2024/01/02 09:25:46;;;;;;;0.98;0.50;;;;;;;18.33;50.00;99205.19;5087691;28;20512;-72
2024/01/02 09:28:13;;;;;;;1.15;0.50;;;;;;;18.40;49.81;99206.97;5087603;28;20052;-72
2024/01/02 09:30:38;;;;;;;1.58;0.60;;;;;;;18.39;49.71;99197.44;5087406;28;20039;-71
2024/01/02 09:33:04;;;;;;;1.25;0.50;;;;;;;18.40;49.96;99199.06;5087269;28;20020;-72
2024/01/02 09:35:29;;;;;;;1.50;0.52;;;;;;;18.41;50.02;99206.00;5087325;28;20107;-72
2024/01/02 09:37:56;;;;;;;0.55;0.38;;;;;;;18.31;49.95;99184.25;5087166;28;20381;-72
2024/01/02 09:40:35;;;;;;;0.93;0.47;;;;;;;18.41;50.11;99200.72;5087316;28;20039;-70
2024/01/02 09:43:12;;;;;;;1.67;0.50;;;;;;;18.36;49.98;99199.56;5087107;28;20028;-70
2024/01/02 09:45:55;;;;;;;2.20;0.60;;;;;;;18.41;50.15;99200.72;5086759;28;20066;-72
2024/01/02 09:48:27;;;;;;;1.63;0.47;;;;;;;18.43;50.40;99211.09;5086779;28;20039;-72
2024/01/02 09:51:03;;;;;;;0.75;0.47;;;;;;;18.43;50.16;99209.28;5086928;28;20484;-73
2024/01/02 09:53:53;;;;;;;0.80;0.40;;;;;;;18.43;49.96;99211.09;5087366;28;20027;-71
2024/01/02 09:56:37;;;;;;;1.23;0.50;;;;;;;18.44;50.14;99212.75;5086870;28;21112;-72
2024/01/02 09:59:09;;;;;;;;;;;;;;;18.45;50.31;99207.31;5087059;28;20503;-72
2024/01/02 10:01:44;;;;;;;0.45;0.30;;;;;;;18.47;50.27;99201.88;5086584;28;19998;-74
2024/01/02 10:04:15;;;;;;;1.10;0.43;;;;;;;18.47;50.12;99210.59;5086083;28;20031;-72
2024/01/02 10:07:15;;;;;;;2.90;0.50;;;;;;;18.47;50.19;99207.97;5086982;28;20036;-71
2024/01/02 10:10:03;;;;;;;3.92;0.65;;;;;;;18.33;50.45;99186.72;5065042;28;20032;-71
2024/01/02 10:12:40;;;;;;;3.30;0.40;;;;;;;18.35;50.69;99182.91;5074464;28;20040;-72
2024/01/02 10:15:39;;;;;;;0.70;0.30;;;;;;;18.43;50.71;99196.09;5074978;28;20032;-71
2024/01/02 10:18:07;;;;;;;1.33;0.65;;;;;;;18.45;50.68;99198.56;5076996;28;20488;-70
2024/01/02 10:20:47;;;;;;;1.10;0.47;;;;;;;18.46;50.29;99184.41;5082458;28;20391;-70
2024/01/02 10:23:49;;;;;;;1.92;0.50;;;;;;;18.46;50.48;99179.13;5086596;28;20104;-70
2024/01/02 10:26:15;;;;;;;0.85;0.40;;;;;;;18.38;50.29;99165.94;5085110;28;20032;-70
2024/01/02 10:28:42;;;;;;;2.03;0.57;;;;;;;18.44;50.26;99167.91;5085813;28;20032;-70
2024/01/02 10:31:18;;;;;;;1.02;0.47;;;;;;;18.46;50.00;99179.94;5067160;28;20035;-70
2024/01/02 10:34:04;;;;;;;0.50;0.38;;;;;;;18.46;50.46;99166.75;5071442;28;20040;-70
2024/01/02 10:36:40;;;;;;;1.27;0.50;;;;;;;18.42;50.60;99165.44;5069819;28;20082;-70
2024/01/02 10:39:31;;;;;;;3.40;0.50;;;;;;;18.49;50.58;99171.69;5059417;28;20064;-73
2024/01/02 10:42:11;;;;;;;1.63;0.57;;;;;;;18.48;50.35;99150.75;5074795;28;20384;-71
2024/01/02 10:45:07;;;;;;;0.85;0.40;;;;;;;18.52;50.53;99159.16;5084140;28;20042;-70
2024/01/02 10:47:57;;;;;;;1.58;0.60;;;;;;;18.51;50.42;99154.88;5081413;28;20500;-72
2024/01/02 10:50:39;;;;;;;1.23;0.40;;;;;;;18.51;50.42;99152.25;5084091;28;20166;-72
2024/01/02 10:53:31;;;;;;;2.17;0.47;;;;;;;18.49;50.09;99147.13;5084812;28;20051;-69
2024/01/02 10:56:26;;;;;;;1.50;0.43;;;;;;;18.49;50.05;99149.78;5056263;28;20040;-73
2024/01/02 10:59:26;;;;;;;1.40;0.40;;;;;;;18.47;50.17;99141.22;5056021;28;20051;-69
2024/01/02 11:01:59;;;;;;;0.52;0.40;;;;;;;18.37;50.06;99128.19;5051517;28;20056;-70
2024/01/02 11:04:56;;;;;;;2.03;0.50;;;;;;;18.42;50.31;99136.44;5084386;28;20570;-70
2024/01/02 11:07:30;;;;;;;1.02;0.50;;;;;;;18.44;50.37;99134.44;5086100;28;20035;-71
2024/01/02 11:10:09;;;;;;;0.45;0.30;;;;;;;18.41;50.51;99124.22;5085503;28;20423;-72
2024/01/02 11:12:59;;;;;;;0.70;0.30;;;;;;;18.43;50.43;99124.88;5077459;28;20039;-70
2024/01/02 11:15:27;;;;;;;0.88;0.32;;;;;;;18.41;50.88;99113.69;5060248;28;20127;-76
2024/01/02 11:17:55;;;;;;;1.35;0.40;;;;;;;18.43;50.87;99121.44;5084229;28;20036;-72
2024/01/02 11:20:25;;;;;;;1.83;0.73;;;;;;;18.46;50.67;99119.25;5086267;28;20028;-73
2024/01/02 11:23:08;;;;;;;0.57;0.30;;;;;;;18.40;50.74;99103.28;5088910;28;20039;-70
2024/01/02 11:25:46;;;;;;;1.20;0.40;;;;;;;18.43;50.33;99103.78;5087487;28;20024;-71
2024/01/02 11:28:12;;;;;;;1.35;0.40;;;;;;;18.33;50.37;99082.06;5089751;28;20491;-73
2024/01/02 11:30:41;;;;;;;1.23;0.50;;;;;;;18.40;50.53;99098.84;5089756;28;20067;-74
2024/01/02 11:33:16;;;;;;;1.58;0.50;;;;;;;18.40;50.60;99090.91;5087938;28;20514;-70
2024/01/02 11:35:47;;;;;;;0.65;0.40;;;;;;;18.35;50.28;99069.50;5088689;28;20032;-71